createdAt,value
2023-08-13T03:01:53.206Z,4.80
2023-08-13T03:04:26.254Z,10.90
2023-08-13T03:06:56.840Z,7.70
2023-08-13T03:09:26.829Z,6.60
2023-08-13T03:12:00.586Z,6.30
2023-08-13T03:14:32.325Z,6.40
2023-08-13T03:17:00.760Z,6.40
2023-08-13T03:19:28.133Z,5.70
2023-08-13T03:21:56.818Z,5.10
2023-08-13T03:24:25.818Z,6.00
2023-08-13T03:26:58.189Z,6.50
2023-08-13T03:29:25.997Z,6.30
2023-08-13T03:31:57.350Z,6.40
2023-08-13T03:34:27.719Z,6.80
2023-08-13T03:36:56.505Z,4.90
2023-08-13T03:39:25.388Z,7.50
2023-08-13T03:41:56.046Z,7.90
2023-08-13T03:44:26.828Z,7.50
2023-08-13T03:47:00.242Z,5.00
2023-08-13T03:49:30.361Z,5.50
2023-08-13T03:51:58.821Z,6.00
2023-08-13T03:54:30.615Z,5.80
2023-08-13T03:56:57.886Z,7.80
2023-08-13T03:59:27.312Z,8.50
2023-08-13T04:01:55.691Z,7.20
2023-08-13T04:04:24.414Z,5.50
2023-08-13T04:06:56.685Z,9.70
2023-08-13T04:09:25.010Z,9.60
2023-08-13T04:11:53.464Z,5.10
2023-08-13T04:14:21.642Z,5.20
2023-08-13T04:16:51.728Z,9.00
2023-08-13T04:19:21.175Z,5.10
2023-08-13T04:21:52.927Z,8.40
2023-08-13T04:24:23.408Z,9.00
2023-08-13T04:26:55.736Z,7.00
2023-08-13T04:29:24.018Z,9.00
2023-08-13T04:31:55.219Z,7.60
2023-08-13T04:34:23.809Z,6.00
2023-08-13T04:36:55.041Z,6.20
2023-08-13T04:39:25.541Z,8.50
2023-08-13T04:41:54.588Z,8.40
2023-08-13T04:44:23.089Z,7.00
2023-08-13T04:46:53.257Z,7.20
2023-08-13T04:49:22.112Z,6.80
2023-08-13T04:51:52.227Z,8.20
2023-08-13T04:54:21.218Z,16.90
2023-08-13T04:56:49.184Z,6.30
2023-08-13T04:59:17.830Z,9.50
2023-08-13T05:01:45.976Z,8.10
2023-08-13T05:04:14.364Z,7.40
2023-08-13T05:06:42.565Z,5.50
2023-08-13T05:09:11.083Z,7.40
2023-08-13T05:11:39.900Z,5.50
2023-08-13T05:14:08.379Z,6.50
2023-08-13T05:16:37.183Z,6.30
2023-08-13T05:19:04.625Z,8.00
2023-08-13T05:21:37.119Z,6.20
2023-08-13T05:24:37.305Z,6.20
2023-08-13T05:27:07.633Z,5.80
2023-08-13T05:29:38.173Z,6.80
2023-08-13T05:32:07.026Z,6.10
2023-08-13T05:34:40.473Z,6.60
2023-08-13T05:37:09.627Z,6.30
2023-08-13T05:39:37.878Z,6.80
2023-08-13T05:42:06.559Z,7.60
2023-08-13T05:44:37.854Z,5.60
2023-08-13T05:47:06.519Z,6.40
2023-08-13T05:49:34.497Z,6.40
2023-08-13T05:52:02.623Z,7.10
2023-08-13T05:54:31.075Z,6.10
2023-08-13T05:56:59.162Z,5.90
2023-08-13T05:59:29.438Z,7.80
2023-08-13T06:01:57.089Z,6.30
2023-08-13T06:04:24.960Z,5.50
2023-08-13T06:06:52.635Z,6.80
2023-08-13T06:09:20.463Z,4.90
2023-08-13T06:11:48.617Z,5.40
2023-08-13T06:14:16.100Z,5.30
2023-08-13T06:16:46.381Z,6.10
2023-08-13T06:19:15.873Z,5.50
2023-08-13T06:21:43.793Z,6.40
2023-08-13T06:24:11.544Z,7.70
2023-08-13T06:26:39.084Z,6.40
2023-08-13T06:29:06.071Z,5.90
2023-08-13T06:31:42.032Z,6.20
2023-08-13T06:34:48.255Z,6.20
2023-08-13T06:37:16.808Z,13.20
2023-08-13T06:39:44.928Z,7.00
2023-08-13T06:42:13.322Z,6.40
2023-08-13T06:44:44.682Z,5.80
2023-08-13T06:47:13.974Z,6.40
2023-08-13T06:49:42.461Z,8.50
2023-08-13T06:52:14.082Z,7.70
2023-08-13T06:54:44.832Z,6.00
2023-08-13T06:57:32.974Z,6.80
2023-08-13T07:00:00.863Z,6.20
2023-08-13T07:02:29.099Z,6.90
2023-08-13T07:04:57.136Z,7.80
2023-08-13T07:07:28.999Z,7.00
2023-08-13T07:10:06.263Z,8.20
2023-08-13T07:12:39.216Z,10.80
2023-08-13T07:15:09.777Z,6.10
2023-08-13T07:17:39.880Z,6.90
2023-08-13T07:20:11.067Z,6.70
2023-08-13T07:22:39.022Z,6.60
2023-08-13T07:25:09.961Z,5.80
2023-08-13T07:27:38.026Z,8.90
2023-08-13T07:30:09.486Z,6.70
2023-08-13T07:32:37.877Z,8.10
2023-08-13T07:35:08.037Z,7.20
2023-08-13T07:37:40.294Z,7.10
2023-08-13T07:40:29.969Z,7.40
2023-08-13T07:43:03.129Z,8.00
2023-08-13T07:45:30.409Z,6.50
2023-08-13T07:47:59.176Z,7.10
2023-08-13T07:50:26.703Z,7.50
2023-08-13T07:52:54.376Z,6.80
2023-08-13T07:55:22.376Z,8.60
2023-08-13T07:58:18.940Z,6.30
2023-08-13T08:00:46.999Z,6.50
2023-08-13T08:03:16.730Z,6.90
2023-08-13T08:05:49.148Z,7.80
2023-08-13T08:34:42.318Z,5.70
2023-08-13T08:37:15.388Z,5.50
2023-08-13T08:39:47.094Z,7.60
2023-08-13T08:42:15.921Z,4.50
2023-08-13T08:44:49.521Z,4.90
2023-08-13T08:47:25.365Z,6.60
2023-08-13T08:50:07.200Z,3.40
2023-08-13T08:52:42.194Z,4.50
2023-08-13T08:55:45.258Z,4.20
2023-08-13T08:58:14.252Z,4.90
2023-08-13T09:01:10.306Z,4.10
2023-08-13T09:03:49.092Z,4.60
2023-08-13T09:08:53.208Z,4.60
2023-08-13T09:11:21.130Z,6.10
2023-08-13T09:13:53.218Z,4.60
2023-08-13T09:16:21.833Z,4.70
2023-08-13T09:19:04.058Z,4.40
2023-08-13T09:21:39.894Z,4.40
2023-08-13T09:24:39.904Z,5.30
2023-08-13T09:27:10.689Z,5.80
2023-08-13T09:29:40.392Z,6.60
2023-08-13T09:32:09.514Z,5.20
2023-08-13T09:34:37.742Z,5.00
2023-08-13T09:37:05.603Z,5.80
2023-08-13T09:39:53.832Z,5.60
2023-08-13T09:42:24.666Z,3.80
2023-08-13T09:44:57.312Z,3.40
2023-08-13T09:47:27.609Z,5.30
2023-08-13T09:50:02.937Z,5.80
2023-08-13T09:52:32.680Z,5.00
2023-08-13T09:55:18.213Z,4.10
2023-08-13T10:01:11.867Z,4.70
2023-08-13T10:03:41.865Z,3.70
2023-08-13T10:06:11.822Z,4.40
2023-08-13T10:08:42.282Z,3.60
2023-08-13T10:11:13.361Z,5.00
2023-08-13T10:13:42.027Z,4.30
2023-08-13T10:16:14.540Z,4.10
2023-08-13T10:18:48.639Z,3.60
2023-08-13T10:22:06.319Z,4.30
2023-08-13T10:24:39.705Z,3.60
2023-08-13T10:27:13.929Z,3.70
2023-08-13T10:29:45.126Z,3.80
2023-08-13T10:32:21.351Z,4.10
2023-08-13T10:34:55.429Z,3.60
2023-08-13T10:37:33.279Z,3.40
2023-08-13T10:40:09.494Z,3.30
2023-08-13T10:42:38.888Z,3.00
2023-08-13T10:45:09.713Z,3.60
2023-08-13T10:47:57.928Z,3.50
2023-08-13T10:50:43.908Z,4.20
2023-08-13T10:53:27.915Z,8.60
2023-08-13T10:56:10.691Z,3.80
2023-08-13T10:58:41.706Z,4.00
2023-08-13T11:01:24.420Z,4.40
2023-08-13T11:04:04.801Z,5.80
2023-08-13T11:06:42.148Z,4.70
2023-08-13T11:09:12.210Z,4.60
2023-08-13T11:11:45.325Z,4.10
2023-08-13T11:14:16.165Z,4.80
2023-08-13T11:16:48.948Z,5.10
2023-08-13T11:19:20.396Z,5.80
2023-08-13T11:21:55.554Z,4.70
2023-08-13T11:24:28.419Z,4.60
2023-08-13T11:26:57.670Z,3.60
2023-08-13T11:29:27.433Z,4.10
2023-08-13T11:32:22.472Z,3.80
2023-08-13T11:34:55.273Z,4.00
2023-08-13T11:37:44.776Z,4.20
2023-08-13T11:40:20.216Z,3.90
2023-08-13T11:42:58.335Z,3.20
2023-08-13T11:45:53.711Z,3.60
2023-08-13T11:48:39.057Z,4.00
2023-08-13T11:54:36.735Z,3.30
2023-08-13T11:57:09.172Z,3.60
2023-08-13T12:00:05.345Z,3.60
2023-08-13T12:02:43.346Z,4.20
2023-08-13T12:05:17.456Z,4.50
2023-08-13T12:07:49.405Z,5.30
2023-08-13T12:10:18.871Z,4.60
2023-08-13T12:12:51.310Z,8.40
2023-08-13T12:15:25.385Z,6.00
2023-08-13T12:17:56.698Z,6.10
2023-08-13T12:24:06.555Z,4.30
2023-08-13T12:26:45.131Z,4.20
2023-08-13T12:29:21.771Z,4.70
2023-08-13T12:32:07.725Z,4.60
2023-08-13T12:34:39.527Z,7.00
2023-08-13T12:55:01.033Z,4.10
2023-08-13T12:57:28.732Z,5.50
2023-08-13T12:59:58.784Z,4.10
2023-08-13T13:02:29.853Z,5.20
2023-08-13T13:05:01.844Z,5.10
2023-08-13T13:10:02.305Z,4.00
2023-08-13T13:12:34.073Z,5.10
2023-08-13T13:15:05.017Z,4.90
2023-08-13T13:17:35.576Z,3.90
2023-08-13T13:20:12.475Z,3.50
2023-08-13T13:22:43.584Z,4.10
2023-08-13T13:25:13.806Z,3.90
2023-08-13T13:27:46.608Z,3.30
2023-08-13T13:30:15.649Z,2.80
2023-08-13T13:32:47.684Z,3.20
2023-08-13T13:35:16.586Z,2.50
2023-08-13T13:37:45.996Z,3.10
2023-08-13T13:40:15.507Z,3.40
2023-08-13T13:42:49.156Z,3.50
2023-08-13T13:45:23.807Z,2.40
2023-08-13T13:47:52.768Z,2.40
2023-08-13T13:50:22.463Z,1.70
2023-08-13T13:53:10.218Z,5.20
2023-08-13T13:55:47.318Z,2.60
2023-08-13T13:58:16.072Z,1.50
2023-08-13T14:00:46.312Z,2.70
2023-08-13T14:03:15.104Z,2.80
2023-08-13T14:05:44.551Z,2.00
2023-08-13T14:08:14.032Z,1.70
2023-08-13T14:10:45.325Z,1.90
2023-08-13T14:15:59.494Z,2.00
2023-08-13T14:18:31.101Z,2.80
2023-08-13T14:21:16.035Z,1.90
2023-08-13T14:23:46.847Z,2.40
2023-08-13T14:26:16.723Z,2.60
2023-08-13T14:28:48.443Z,1.80
2023-08-13T14:31:18.607Z,1.50
2023-08-13T14:33:48.977Z,1.50
2023-08-13T14:36:18.092Z,1.90
2023-08-13T14:38:47.432Z,1.70
2023-08-13T14:41:16.825Z,2.00
2023-08-13T14:43:45.796Z,2.60
2023-08-13T14:46:20.385Z,1.70
2023-08-13T14:48:49.302Z,1.80
2023-08-13T14:51:18.189Z,2.70
2023-08-13T14:53:46.717Z,2.10
2023-08-13T14:56:19.244Z,2.80
2023-08-13T14:58:47.128Z,2.70
2023-08-13T15:01:16.034Z,1.70
2023-08-13T15:03:45.156Z,4.30
2023-08-13T15:06:17.385Z,1.30
2023-08-13T15:08:47.856Z,1.20
2023-08-13T15:11:15.800Z,1.20
2023-08-13T15:13:44.174Z,1.50
2023-08-13T15:16:13.211Z,4.40
2023-08-13T15:18:42.543Z,1.60
2023-08-13T15:21:13.127Z,2.50
2023-08-13T15:23:43.928Z,1.40
2023-08-13T15:26:16.652Z,2.50
2023-08-13T15:28:46.087Z,2.40
2023-08-13T15:31:16.070Z,3.40
2023-08-13T15:33:44.733Z,1.90
2023-08-13T15:36:15.296Z,1.30
2023-08-13T15:38:48.796Z,2.20
2023-08-13T15:41:18.016Z,3.20
2023-08-13T15:43:46.991Z,3.70
2023-08-13T15:46:15.195Z,2.10
2023-08-13T15:48:43.497Z,2.30
2023-08-13T15:51:15.718Z,2.60
2023-08-13T15:53:45.751Z,1.70
2023-08-13T15:56:14.735Z,1.50
2023-08-13T15:58:43.225Z,3.00
2023-08-13T16:01:13.430Z,1.80
2023-08-13T16:03:41.964Z,1.70
2023-08-13T16:07:13.029Z,1.70
2023-08-13T16:09:50.857Z,1.90
2023-08-13T16:12:22.449Z,4.20
2023-08-13T16:14:51.587Z,1.80
2023-08-13T16:17:19.372Z,2.20
2023-08-13T16:19:50.022Z,3.10
2023-08-13T16:22:19.756Z,3.60
2023-08-13T16:24:48.801Z,2.70
2023-08-13T16:27:18.016Z,2.10
2023-08-13T16:29:47.010Z,2.60
2023-08-13T16:32:27.956Z,3.30
2023-08-13T16:35:01.109Z,2.90
2023-08-13T16:37:34.721Z,3.90
2023-08-13T16:40:06.158Z,2.90
2023-08-13T16:42:46.840Z,2.10
2023-08-13T16:45:20.325Z,2.60
2023-08-13T16:47:48.118Z,2.90
2023-08-13T16:50:16.136Z,5.10
2023-08-13T16:52:44.260Z,2.80
2023-08-13T16:55:12.550Z,3.10
2023-08-13T16:57:43.877Z,2.70
2023-08-13T17:00:13.378Z,2.50
2023-08-13T17:02:44.689Z,3.00
2023-08-13T17:05:14.581Z,4.60
2023-08-13T17:07:42.882Z,5.80
2023-08-13T17:10:14.885Z,2.80
2023-08-13T17:12:44.277Z,5.30
2023-08-13T17:15:23.819Z,4.70
2023-08-13T17:17:56.618Z,4.60
2023-08-13T17:20:26.594Z,10.00
2023-08-13T17:22:55.381Z,13.30
2023-08-13T17:25:24.972Z,10.30
2023-08-13T17:27:54.443Z,4.90
2023-08-13T17:30:26.024Z,4.70
2023-08-13T17:32:54.480Z,4.40
2023-08-13T17:35:22.874Z,5.60
2023-08-13T17:37:51.367Z,4.10
2023-08-13T17:40:20.339Z,2.90
2023-08-13T17:42:49.802Z,3.20
2023-08-13T17:45:19.048Z,4.30
2023-08-13T17:47:48.384Z,5.30
2023-08-13T17:50:17.519Z,5.40
2023-08-13T17:52:45.755Z,8.20
2023-08-13T17:55:13.423Z,2.60
2023-08-13T17:57:42.090Z,5.70
2023-08-13T18:00:11.185Z,3.40
2023-08-13T18:02:46.171Z,3.90
2023-08-13T18:05:15.261Z,4.30
2023-08-13T18:07:44.242Z,4.20
2023-08-13T18:10:13.275Z,3.40
2023-08-13T18:12:42.790Z,6.30
2023-08-13T18:15:11.568Z,3.50
2023-08-13T18:17:40.209Z,4.70
2023-08-13T18:20:12.267Z,7.30
2023-08-13T18:22:43.360Z,5.90
2023-08-13T18:25:12.633Z,3.60
2023-08-13T18:27:41.513Z,6.40
2023-08-13T18:30:10.178Z,5.10
2023-08-13T18:32:38.598Z,3.00
2023-08-13T18:35:07.632Z,15.50
2023-08-13T18:37:35.298Z,5.80
2023-08-13T18:40:04.139Z,5.10
2023-08-13T18:42:32.321Z,9.00
2023-08-13T18:45:00.585Z,4.90
2023-08-13T18:47:29.266Z,5.40
2023-08-13T18:49:58.358Z,5.00
2023-08-13T18:52:30.430Z,10.90
2023-08-13T18:54:58.885Z,7.10
2023-08-13T18:57:27.167Z,2.90
2023-08-13T18:59:56.764Z,9.60
2023-08-13T19:02:26.711Z,3.60
2023-08-13T19:04:55.191Z,5.40
2023-08-13T19:07:23.948Z,8.90
2023-08-13T19:09:54.178Z,4.20
2023-08-13T19:12:27.481Z,4.40
2023-08-13T19:14:58.071Z,3.30
2023-08-13T19:17:27.207Z,3.40
2023-08-13T19:19:55.723Z,5.70
2023-08-13T19:22:24.388Z,7.70
2023-08-13T19:24:52.762Z,6.90
2023-08-13T19:27:22.388Z,7.30
2023-08-13T19:29:52.089Z,7.90
2023-08-13T19:32:21.794Z,21.10
2023-08-13T19:34:52.933Z,23.00
2023-08-13T19:37:22.651Z,18.00
2023-08-13T19:39:53.363Z,11.00
2023-08-13T19:42:24.397Z,9.40
2023-08-13T19:44:55.072Z,6.40
2023-08-13T19:47:26.899Z,9.40
2023-08-13T19:49:56.574Z,8.30
2023-08-13T19:52:32.004Z,6.70
2023-08-13T19:55:00.720Z,8.60
2023-08-13T19:57:33.885Z,6.20
2023-08-13T20:00:03.951Z,10.60
2023-08-13T20:02:43.625Z,6.30
2023-08-13T20:05:11.713Z,7.50
2023-08-13T20:07:39.998Z,12.30
2023-08-13T20:10:10.625Z,11.30
2023-08-13T20:12:40.726Z,9.00
2023-08-13T20:15:14.555Z,12.60
2023-08-13T20:17:43.789Z,10.50
2023-08-13T20:20:17.820Z,7.60
2023-08-13T20:22:53.757Z,6.50
2023-08-13T20:25:29.920Z,7.20
2023-08-13T20:28:08.019Z,7.50
2023-08-13T20:30:39.911Z,8.20
2023-08-13T20:33:22.136Z,5.50
2023-08-13T20:35:55.824Z,6.20
2023-08-13T20:38:25.519Z,7.30
2023-08-13T20:41:02.188Z,7.70
2023-08-13T20:43:33.433Z,5.30
2023-08-13T20:46:04.199Z,6.20
2023-08-13T20:48:32.040Z,6.00
2023-08-13T20:51:04.254Z,6.10
2023-08-13T20:53:35.206Z,7.90
2023-08-13T20:56:08.682Z,8.60
2023-08-13T20:58:40.338Z,5.80
2023-08-13T21:01:14.270Z,4.10
2023-08-13T21:06:22.399Z,6.30
2023-08-13T21:09:12.695Z,6.20
2023-08-13T21:11:50.780Z,6.00
2023-08-13T21:14:23.902Z,4.40
2023-08-13T21:17:03.423Z,5.80
2023-08-13T21:19:34.981Z,5.30
2023-08-13T21:22:10.288Z,4.90
2023-08-13T21:25:02.620Z,5.50
2023-08-13T21:27:36.882Z,5.40
2023-08-13T21:30:26.070Z,5.60
2023-08-13T21:33:03.767Z,4.20
2023-08-13T21:35:43.337Z,5.40
2023-08-13T21:38:16.415Z,5.60
2023-08-13T21:40:54.166Z,6.20
2023-08-13T21:43:24.935Z,2.90
2023-08-13T21:45:55.898Z,4.30
2023-08-13T21:48:26.394Z,3.50
2023-08-13T21:50:59.826Z,3.90
2023-08-13T21:53:30.394Z,3.90
2023-08-13T21:56:04.255Z,3.90
2023-08-13T21:58:51.029Z,4.00
2023-08-13T22:01:32.870Z,3.40
2023-08-13T22:04:08.984Z,4.10
2023-08-13T22:06:39.950Z,3.50
2023-08-13T22:09:12.276Z,6.70
2023-08-13T22:11:41.927Z,3.20
2023-08-13T22:14:10.136Z,3.80
2023-08-13T22:16:38.333Z,3.50
2023-08-13T22:19:06.627Z,3.20
2023-08-13T22:21:35.854Z,3.50
2023-08-13T22:24:05.638Z,3.60
2023-08-13T22:26:34.497Z,3.30
2023-08-13T22:29:03.027Z,3.40
2023-08-13T22:31:30.956Z,3.90
2023-08-13T22:34:00.788Z,2.90
2023-08-13T22:36:29.277Z,3.00
2023-08-13T22:38:57.276Z,2.60
2023-08-13T22:41:26.727Z,2.90
2023-08-13T22:43:56.682Z,3.20
2023-08-13T22:46:25.465Z,2.20
2023-08-13T22:48:53.640Z,2.70
2023-08-13T22:51:21.822Z,2.50
2023-08-13T22:53:52.557Z,3.30
2023-08-13T22:56:20.835Z,3.60
2023-08-13T22:58:49.458Z,2.60
2023-08-13T23:01:17.697Z,2.30
2023-08-13T23:03:46.060Z,1.80
2023-08-13T23:06:19.049Z,3.20
2023-08-13T23:11:16.661Z,1.80
2023-08-13T23:13:45.085Z,2.60
2023-08-13T23:16:13.256Z,2.10
2023-08-13T23:18:41.433Z,3.10
2023-08-13T23:21:09.369Z,1.90
2023-08-13T23:23:37.873Z,2.00
2023-08-13T23:26:06.038Z,2.20
2023-08-13T23:28:34.264Z,2.40
2023-08-13T23:31:02.162Z,2.00
2023-08-13T23:33:32.483Z,2.60
2023-08-13T23:36:00.740Z,1.70
2023-08-13T23:38:28.101Z,2.30
2023-08-13T23:40:56.645Z,2.80
2023-08-13T23:43:24.936Z,1.80
2023-08-13T23:45:52.216Z,2.10
2023-08-13T23:48:20.360Z,1.90
2023-08-13T23:50:55.719Z,2.00
2023-08-13T23:53:25.120Z,2.10
2023-08-13T23:55:53.851Z,2.00
2023-08-13T23:58:22.554Z,2.00
